Time;durP1;ratioP1;P1;durP2;ratioP2;P2;SDS_P1;SDS_P2;PMS_P1;PMS_P2;Temp;Humidity;BMP_temperature;BMP_pressure;BME280_temperature;BME280_humidity;BME280_pressure;Samples;Min_cycle;Max_cycle;Signal;HPM_P1;HPM_P2
2023/06/12 00:00:12;;;;;;;;;;;;;;;;;;5016585;28;20375;-25
2023/06/12 00:02:39;;;;;;;;;;;;;;;;;;5016312;28;19909;-23
2023/06/12 00:05:05;;;;;;;;;;;;;;;;;;5016101;28;19922;-25
2023/06/12 00:07:31;;;;;;;;;;;;;;;;;;5016315;28;19972;-25
2023/06/12 00:09:57;;;;;;;;;;;;;;;;;;5016492;28;19909;-26
2023/06/12 00:12:23;;;;;;;;;;;;;;;;;;5016080;28;19918;-24
2023/06/12 00:14:49;;;;;;;;;;;;;;;;;;5016129;28;20264;-26
2023/06/12 00:17:15;;;;;;;;;;;;;;;;;;5016108;28;20261;-26
2023/06/12 00:19:41;;;;;;;;;;;;;;;;;;5016072;28;19979;-26
2023/06/12 00:22:07;;;;;;;;;;;;;;;;;;5015974;28;19988;-25
2023/06/12 00:24:33;;;;;;;;;;;;;;;;;;5016268;28;19949;-29
2023/06/12 00:26:59;;;;;;;;;;;;;;;;;;5015910;28;19910;-28
2023/06/12 00:29:25;;;;;;;;;;;;;;;;;;5016133;28;19910;-22
2023/06/12 00:31:51;;;;;;;;;;;;;;;;;;5015775;28;20230;-23
2023/06/12 00:34:17;;;;;;;;;;;;;;;;;;5015718;28;19914;-27
2023/06/12 00:36:44;;;;;;;;;;;;;;;;;;5015967;28;19980;-29
2023/06/12 00:39:10;;;;;;;;;;;;;;;;;;5015736;28;19920;-23
2023/06/12 00:41:36;;;;;;;;;;;;;;;;;;5015655;28;19925;-24
2023/06/12 00:44:02;;;;;;;;;;;;;;;;;;5015564;28;19913;-25
2023/06/12 00:46:28;;;;;;;;;;;;;;;;;;5015861;28;19968;-27
2023/06/12 00:48:54;;;;;;;;;;;;;;;;;;5015602;28;20268;-26
2023/06/12 00:51:20;;;;;;;;;;;;;;;;;;5015519;28;19910;-29
2023/06/12 00:53:47;;;;;;;;;;;;;;;;;;5015655;28;19940;-25
2023/06/12 00:56:13;;;;;;;;;;;;;;;;;;5015721;28;19923;-26
2023/06/12 00:58:39;;;;;;;;;;;;;;;;;;5015350;28;20345;-23
2023/06/12 01:01:05;;;;;;;;;;;;;;;;;;4998020;28;19920;-27
2023/06/12 01:03:32;;;;;;;;;;;;;;;;;;5015015;28;19909;-22
2023/06/12 01:05:57;;;;;;;;;;;;;;;;;;5015582;28;19976;-28
2023/06/12 01:08:24;;;;;;;;;;;;;;;;;;5015245;28;20288;-26
2023/06/12 01:10:49;;;;;;;;;;;;;;;;;;5015039;28;19968;-29
2023/06/12 01:13:16;;;;;;;;;;;;;;;;;;5014942;28;19913;-28
2023/06/12 01:15:42;;;;;;;;;;;;;;;;;;5015164;28;20390;-27
2023/06/12 01:18:08;;;;;;;;;;;;;;;;;;5015437;28;20336;-28
2023/06/12 01:20:34;;;;;;;;;;;;;;;;;;5015104;28;19913;-23
2023/06/12 01:23:00;;;;;;;;;;;;;;;;;;5014990;28;19925;-23
2023/06/12 01:25:26;;;;;;;;;;;;;;;;;;5015063;28;19909;-27
2023/06/12 01:27:52;;;;;;;;;;;;;;;;;;5015105;28;20143;-30
2023/06/12 01:30:18;;;;;;;;;;;;;;;;;;5015251;28;19909;-22
2023/06/12 01:32:47;;;;;;;;;;;;;;;;;;5014877;28;19920;-23
2023/06/12 01:35:13;;;;;;;;;;;;;;;;;;5014937;28;20379;-27
2023/06/12 01:37:43;;;;;;;;;;;;;;;;;;5015164;28;19948;-25
2023/06/12 01:40:09;;;;;;;;;;;;;;;;;;5015147;28;19941;-26
2023/06/12 01:42:35;;;;;;;;;;;;;;;;;;5014911;28;20277;-22
2023/06/12 01:45:01;;;;;;;;;;;;;;;;;;5014900;28;19909;-24
2023/06/12 01:47:27;;;;;;;;;;;;;;;;;;5014800;28;20024;-25
2023/06/12 01:49:53;;;;;;;;;;;;;;;;;;5015095;28;19944;-27
2023/06/12 01:52:19;;;;;;;;;;;;;;;;;;5014568;28;19919;-26
2023/06/12 01:54:49;;;;;;;;;;;;;;;;;;5014821;28;20249;-29
2023/06/12 01:57:15;;;;;;;;;;;;;;;;;;5015010;28;19966;-27
2023/06/12 01:59:41;;;;;;;;;;;;;;;;;;5014695;28;19909;-28
2023/06/12 02:02:07;;;;;;;;;;;;;;;;;;5014933;28;20349;-24
2023/06/12 02:04:33;;;;;;;;;;;;;;;;;;5014652;28;20047;-27
2023/06/12 02:06:59;;;;;;;;;;;;;;;;;;5014729;28;20248;-22
2023/06/12 02:09:25;;;;;;;;;;;;;;;;;;5014685;28;19987;-29
2023/06/12 02:11:51;;;;;;;;;;;;;;;;;;5014533;28;19905;-25
2023/06/12 02:14:17;;;;;;;;;;;;;;;;;;5014564;28;20000;-28
2023/06/12 02:16:45;;;;;;;;;;;;;;;;;;5014767;28;19914;-26
2023/06/12 02:19:11;;;;;;;;;;;;;;;;;;5014715;28;19960;-29
2023/06/12 02:21:37;;;;;;;;;;;;;;;;;;4997126;28;19909;-25
2023/06/12 02:24:03;;;;;;;;;;;;;;;;;;5016200;28;20253;-28
2023/06/12 02:26:29;;;;;;;;;;;;;;;;;;5018434;28;19909;-29
2023/06/12 02:28:55;;;;;;;;;;;;;;;;;;5018140;28;19909;-22
2023/06/12 02:31:22;;;;;;;;;;;;;;;;;;5018018;28;19910;-25
2023/06/12 02:33:48;;;;;;;;;;;;;;;;;;5017986;28;20313;-24
2023/06/12 02:36:14;;;;;;;;;;;;;;;;;;5017985;28;19952;-24
2023/06/12 02:38:40;;;;;;;;;;;;;;;;;;5017963;28;19916;-26
2023/06/12 02:41:06;;;;;;;;;;;;;;;;;;5017925;28;20288;-27
2023/06/12 02:43:31;;;;;;;;;;;;;;;;;;5017904;28;20341;-24
2023/06/12 02:45:57;;;;;;;;;;;;;;;;;;5017824;28;19936;-24
2023/06/12 02:48:23;;;;;;;;;;;;;;;;;;5018126;28;19910;-27
2023/06/12 02:50:49;;;;;;;;;;;;;;;;;;5017771;28;19917;-28
2023/06/12 02:53:15;;;;;;;;;;;;;;;;;;5017800;28;19913;-25
2023/06/12 02:55:44;;;;;;;;;;;;;;;;;;5017646;28;19910;-24
2023/06/12 02:58:10;;;;;;;;;;;;;;;;;;5017908;28;19913;-26
2023/06/12 03:00:36;;;;;;;;;;;;;;;;;;5017849;28;19985;-25
2023/06/12 03:03:02;;;;;;;;;;;;;;;;;;5017458;28;19910;-25
2023/06/12 03:05:33;;;;;;;;;;;;;;;;;;5017297;28;19965;-26
2023/06/12 03:08:01;;;;;;;;;;;;;;;;;;5017397;28;20351;-28
2023/06/12 03:10:27;;;;;;;;;;;;;;;;;;5017364;28;19909;-23
2023/06/12 03:12:53;;;;;;;;;;;;;;;;;;5017199;28;20016;-23
2023/06/12 03:15:19;;;;;;;;;;;;;;;;;;5017559;28;19910;-23
2023/06/12 03:17:45;;;;;;;;;;;;;;;;;;5017275;28;19909;-25
2023/06/12 03:20:11;;;;;;;;;;;;;;;;;;5017524;28;19917;-22
2023/06/12 03:22:37;;;;;;;;;;;;;;;;;;5017324;28;19909;-23
2023/06/12 03:25:03;;;;;;;;;;;;;;;;;;5017210;28;20008;-20
2023/06/12 03:27:29;;;;;;;;;;;;;;;;;;5017071;28;20345;-26
2023/06/12 03:29:55;;;;;;;;;;;;;;;;;;5017065;28;20377;-23
2023/06/12 03:32:21;;;;;;;;;;;;;;;;;;5016875;28;19949;-28
2023/06/12 03:34:47;;;;;;;;;;;;;;;;;;4998998;28;19927;-24
2023/06/12 03:37:13;;;;;;;;;;;;;;;;;;5016710;28;20032;-27
2023/06/12 03:39:39;;;;;;;;;;;;;;;;;;5016880;28;19913;-28
2023/06/12 03:42:06;;;;;;;;;;;;;;;;;;5016622;28;20368;-27
2023/06/12 03:44:32;;;;;;;;;;;;;;;;;;5016882;28;20294;-29
2023/06/12 03:46:58;;;;;;;;;;;;;;;;;;5016555;28;19917;-24
2023/06/12 03:49:24;;;;;;;;;;;;;;;;;;5016537;28;19916;-24
2023/06/12 03:51:50;;;;;;;;;;;;;;;;;;5016457;28;19909;-22
2023/06/12 03:54:15;;;;;;;;;;;;;;;;;;5016422;28;19913;-24
2023/06/12 03:56:41;;;;;;;;;;;;;;;;;;5016562;28;19924;-25
2023/06/12 03:59:07;;;;;;;;;;;;;;;;;;5016225;28;20318;-23
2023/06/12 04:04:10;;;;;;;;;;;;;;;;;;4455715;26;20051;-20
2023/06/12 04:06:40;;;;;;;;;;;;;;;;;;5036368;28;20307;-22
2023/06/12 04:09:07;;;;;;;;;;;;;;;;;;5036186;28;19921;-21
2023/06/12 04:11:34;;;;;;;;;;;;;;;;;;5035968;28;20280;-21
2023/06/12 04:14:00;;;;;;;;;;;;;;;;;;5035632;28;19913;-21
2023/06/12 04:16:27;;;;;;;;;;;;;;;;;;5035873;28;19909;-21
2023/06/12 04:18:53;;;;;;;;;;;;;;;;;;5035828;28;19913;-20
2023/06/12 04:21:20;;;;;;;;;;;;;;;;;;5035633;28;19995;-20
2023/06/12 04:23:47;;;;;;;;;;;;;;;;;;5035574;28;20255;-20
2023/06/12 04:26:14;;;;;;;;;;;;;;;;;;5035435;28;19957;-21
2023/06/12 04:28:41;;;;;;;;;;;;;;;;;;5035356;28;20012;-24
2023/06/12 04:31:07;;;;;;;;;;;;;;;;;;5035531;28;19917;-20
2023/06/12 04:33:35;;;;;;;;;;;;;;;;;;5035366;28;19917;-21
2023/06/12 04:36:02;;;;;;;;;;;;;;;;;;5035213;28;19971;-22
2023/06/12 04:38:30;;;;;;;;;;;;;;;;;;5035267;28;20004;-23
2023/06/12 04:40:56;;;;;;;;;;;;;;;;;;5035612;28;19909;-22
2023/06/12 04:43:23;;;;;;;;;;;;;;;;;;5035251;28;19917;-21
2023/06/12 04:45:51;;;;;;;;;;;;;;;;;;5034939;28;19991;-22
2023/06/12 04:48:18;;;;;;;;;;;;;;;;;;5034896;28;19909;-21
2023/06/12 04:50:44;;;;;;;;;;;;;;;;;;5035501;28;19909;-21
2023/06/12 04:53:12;;;;;;;;;;;;;;;;;;5034994;28;20003;-22
2023/06/12 04:55:38;;;;;;;;;;;;;;;;;;5035144;28;19921;-21
2023/06/12 04:58:04;;;;;;;;;;;;;;;;;;5035045;28;19949;-22
2023/06/12 05:00:30;;;;;;;;;;;;;;;;;;5034835;28;19909;-22
2023/06/12 05:02:58;;;;;;;;;;;;;;;;;;5034402;28;19925;-21
2023/06/12 05:05:27;;;;;;;;;;;;;;;;;;5034574;28;19909;-20
2023/06/12 05:07:53;;;;;;;;;;;;;;;;;;5033618;28;20294;-21
2023/06/12 05:10:19;;;;;;;;;;;;;;;;;;5034977;28;19917;-20
2023/06/12 05:12:45;;;;;;;;;;;;;;;;;;5034537;28;19913;-21
2023/06/12 05:15:11;;;;;;;;;;;;;;;;;;5035054;28;19916;-20
2023/06/12 05:17:37;;;;;;;;;;;;;;;;;;5034905;28;20000;-21
2023/06/12 05:20:08;;;;;;;;;;;;;;;;;;5033832;28;19920;-20
2023/06/12 05:22:34;;;;;;;;;;;;;;;;;;5035218;28;19909;-21
2023/06/12 05:25:00;;;;;;;;;;;;;;;;;;5034620;28;19909;-21
2023/06/12 05:27:26;;;;;;;;;;;;;;;;;;5033571;28;19992;-20
2023/06/12 05:29:52;;;;;;;;;;;;;;;;;;5034804;28;19909;-22
2023/06/12 05:32:18;;;;;;;;;;;;;;;;;;5034811;28;20300;-23
2023/06/12 05:34:43;;;;;;;;;;;;;;;;;;5034884;28;20350;-20
2023/06/12 05:37:09;;;;;;;;;;;;;;;;;;5034800;28;19909;-21
2023/06/12 05:39:35;;;;;;;;;;;;;;;;;;5034620;28;19949;-20
2023/06/12 05:42:01;;;;;;;;;;;;;;;;;;5033428;28;19963;-20
2023/06/12 05:44:28;;;;;;;;;;;;;;;;;;5034600;28;19909;-21
2023/06/12 05:46:53;;;;;;;;;;;;;;;;;;5034822;28;19913;-22
2023/06/12 05:49:19;;;;;;;;;;;;;;;;;;5034583;28;20328;-24
2023/06/12 05:51:45;;;;;;;;;;;;;;;;;;5034454;28;19961;-22
2023/06/12 05:54:11;;;;;;;;;;;;;;;;;;5034892;28;20343;-21
2023/06/12 05:56:37;;;;;;;;;;;;;;;;;;5034380;28;20351;-21
2023/06/12 05:59:03;;;;;;;;;;;;;;;;;;5037129;28;19924;-21
2023/06/12 06:01:31;;;;;;;;;;;;;;;;;;5036767;28;20235;-23
2023/06/12 06:03:57;;;;;;;;;;;;;;;;;;5037776;28;20023;-20
2023/06/12 06:06:23;;;;;;;;;;;;;;;;;;5037952;28;20129;-20
2023/06/12 06:08:49;;;;;;;;;;;;;;;;;;5038077;28;19959;-21
2023/06/12 06:11:15;;;;;;;;;;;;;;;;;;5036841;28;19909;-23
2023/06/12 06:13:43;;;;;;;;;;;;;;;;;;5037300;28;19913;-21
2023/06/12 06:16:10;;;;;;;;;;;;;;;;;;5037426;28;20003;-22
2023/06/12 06:18:36;;;;;;;;;;;;;;;;;;5037367;28;19966;-22
2023/06/12 06:21:02;;;;;;;;;;;;;;;;;;5037104;28;19909;-22
2023/06/12 06:23:29;;;;;;;;;;;;;;;;;;5036358;28;20247;-21
2023/06/12 06:25:55;;;;;;;;;;;;;;;;;;5037104;28;20013;-21
2023/06/12 06:28:20;;;;;;;;;;;;;;;;;;5037075;28;19949;-19
2023/06/12 06:30:46;;;;;;;;;;;;;;;;;;5037275;28;19909;-22
2023/06/12 06:33:12;;;;;;;;;;;;;;;;;;5037144;28;19921;-22
2023/06/12 06:35:38;;;;;;;;;;;;;;;;;;5036897;28;20001;-21
2023/06/12 06:38:04;;;;;;;;;;;;;;;;;;5037393;28;19916;-22
2023/06/12 06:40:30;;;;;;;;;;;;;;;;;;5037901;28;19970;-21
2023/06/12 06:42:56;;;;;;;;;;;;;;;;;;5037566;28;20007;-21
2023/06/12 06:45:22;;;;;;;;;;;;;;;;;;5037472;28;19913;-21
2023/06/12 06:47:48;;;;;;;;;;;;;;;;;;5037370;28;19920;-21
2023/06/12 06:50:14;;;;;;;;;;;;;;;;;;5037438;28;19994;-23
2023/06/12 06:52:41;;;;;;;;;;;;;;;;;;5037226;28;19913;-22
2023/06/12 06:55:07;;;;;;;;;;;;;;;;;;5037209;28;19920;-21
2023/06/12 06:57:33;;;;;;;;;;;;;;;;;;5037138;28;19996;-20
2023/06/12 07:00:04;;;;;;;;;;;;;;;;;;5037446;28;20027;-21
2023/06/12 07:02:30;;;;;;;;;;;;;;;;;;5037133;28;19917;-21
2023/06/12 07:04:57;;;;;;;;;;;;;;;;;;5037022;28;19916;-20
2023/06/12 07:07:23;;;;;;;;;;;;;;;;;;5036944;28;19974;-20
2023/06/12 07:09:49;;;;;;;;;;;;;;;;;;5035829;28;20340;-22
2023/06/12 07:12:15;;;;;;;;;;;;;;;;;;5036654;28;19917;-23
2023/06/12 07:14:41;;;;;;;;;;;;;;;;;;5036460;28;19909;-21
2023/06/12 07:17:07;;;;;;;;;;;;;;;;;;5036751;28;19916;-22
2023/06/12 07:19:33;;;;;;;;;;;;;;;;;;5036958;28;19928;-21
2023/06/12 07:21:59;;;;;;;;;;;;;;;;;;5036568;28;19910;-20
2023/06/12 07:24:25;;;;;;;;;;;;;;;;;;5036925;28;19909;-20
2023/06/12 07:26:52;;;;;;;;;;;;;;;;;;5035577;28;19916;-20
2023/06/12 07:29:19;;;;;;;;;;;;;;;;;;5036683;28;19909;-21
2023/06/12 07:31:47;;;;;;;;;;;;;;;;;;5036254;28;19920;-21
2023/06/12 07:34:13;;;;;;;;;;;;;;;;;;5036303;28;19925;-21
2023/06/12 07:36:38;;;;;;;;;;;;;;;;;;5035398;28;20324;-22
2023/06/12 07:39:04;;;;;;;;;;;;;;;;;;5036206;28;19920;-21
2023/06/12 07:41:30;;;;;;;;;;;;;;;;;;5036201;28;19909;-22
2023/06/12 07:43:56;;;;;;;;;;;;;;;;;;5034886;28;19909;-21
2023/06/12 07:46:22;;;;;;;;;;;;;;;;;;5035896;28;19913;-21
2023/06/12 07:48:48;;;;;;;;;;;;;;;;;;5036063;28;20266;-19
2023/06/12 07:51:14;;;;;;;;;;;;;;;;;;5035115;28;19920;-21
2023/06/12 07:53:40;;;;;;;;;;;;;;;;;;5036463;28;20067;-22
2023/06/12 07:56:07;;;;;;;;;;;;;;;;;;5036397;28;20268;-21
2023/06/12 07:58:33;;;;;;;;;;;;;;;;;;5036181;28;19921;-22
2023/06/12 08:00:59;;;;;;;;;;;;;;;;;;5035900;28;20255;-22
2023/06/12 08:03:25;;;;;;;;;;;;;;;;;;5035482;28;20266;-21
2023/06/12 08:05:51;;;;;;;;;;;;;;;;;;5035683;28;20043;-21
2023/06/12 08:08:20;;;;;;;;;;;;;;;;;;5033991;28;21534;-21
2023/06/12 08:10:46;;;;;;;;;;;;;;;;;;5035867;28;19909;-21
2023/06/12 08:13:12;;;;;;;;;;;;;;;;;;5035582;28;20299;-21
2023/06/12 08:15:38;;;;;;;;;;;;;;;;;;5035467;28;19915;-21
2023/06/12 08:18:04;;;;;;;;;;;;;;;;;;5035720;28;19971;-22
2023/06/12 08:20:33;;;;;;;;;;;;;;;;;;5035508;28;19916;-21
2023/06/12 08:22:59;;;;;;;;;;;;;;;;;;5034658;28;19919;-21
2023/06/12 08:25:25;;;;;;;;;;;;;;;;;;5035677;28;19910;-20
2023/06/12 08:27:52;;;;;;;;;;;;;;;;;;5035631;28;19952;-21
2023/06/12 08:30:18;;;;;;;;;;;;;;;;;;5034428;28;20000;-21
2023/06/12 08:32:45;;;;;;;;;;;;;;;;;;5035375;28;20020;-22
2023/06/12 08:35:11;;;;;;;;;;;;;;;;;;5035708;28;19966;-21
2023/06/12 08:37:37;;;;;;;;;;;;;;;;;;5034620;28;20354;-21
2023/06/12 08:40:05;;;;;;;;;;;;;;;;;;5035318;28;20291;-20
2023/06/12 08:42:31;;;;;;;;;;;;;;;;;;5033662;28;19909;-21
2023/06/12 08:44:57;;;;;;;;;;;;;;;;;;5035068;28;20251;-23
2023/06/12 08:47:23;;;;;;;;;;;;;;;;;;5034792;28;19920;-22
2023/06/12 08:49:50;;;;;;;;;;;;;;;;;;5034883;28;19997;-22
2023/06/12 08:52:16;;;;;;;;;;;;;;;;;;5034403;28;19913;-23
2023/06/12 08:54:42;;;;;;;;;;;;;;;;;;5033502;28;19917;-22
2023/06/12 08:57:08;;;;;;;;;;;;;;;;;;5034616;28;19996;-22
2023/06/12 08:59:34;;;;;;;;;;;;;;;;;;5034497;28;19944;-20
2023/06/12 09:02:00;;;;;;;;;;;;;;;;;;5034403;28;19909;-20
2023/06/12 09:04:28;;;;;;;;;;;;;;;;;;5033304;28;20012;-21
2023/06/12 09:07:01;;;;;;;;;;;;;;;;;;5034598;28;19936;-20
2023/06/12 09:09:27;;;;;;;;;;;;;;;;;;5034634;28;19936;-21
2023/06/12 09:11:53;;;;;;;;;;;;;;;;;;5034330;28;20344;-21
2023/06/12 09:14:19;;;;;;;;;;;;;;;;;;5033034;28;19924;-20
2023/06/12 09:16:45;;;;;;;;;;;;;;;;;;5034269;28;20367;-21
2023/06/12 09:19:11;;;;;;;;;;;;;;;;;;5034325;28;19916;-22
2023/06/12 09:21:37;;;;;;;;;;;;;;;;;;5033084;28;20385;-21
2023/06/12 09:24:03;;;;;;;;;;;;;;;;;;5034067;28;20379;-22
2023/06/12 09:26:29;;;;;;;;;;;;;;;;;;5033279;28;19910;-21
2023/06/12 09:28:56;;;;;;;;;;;;;;;;;;5034639;28;20336;-21
2023/06/12 09:31:22;;;;;;;;;;;;;;;;;;5034363;28;20233;-21
2023/06/12 09:33:48;;;;;;;;;;;;;;;;;;5033859;28;19920;-22
2023/06/12 09:36:14;;;;;;;;;;;;;;;;;;5034252;28;19916;-21
2023/06/12 09:38:40;;;;;;;;;;;;;;;;;;5034400;28;19964;-22
2023/06/12 09:41:06;;;;;;;;;;;;;;;;;;5034586;28;19909;-23
2023/06/12 09:43:32;;;;;;;;;;;;;;;;;;5034340;28;19963;-21
2023/06/12 09:45:58;;;;;;;;;;;;;;;;;;5034233;28;19956;-32
2023/06/12 09:48:24;;;;;;;;;;;;;;;;;;5034588;28;19913;-26
2023/06/12 09:50:51;;;;;;;;;;;;;;;;;;5034414;28;19916;-20
2023/06/12 09:53:17;;;;;;;;;;;;;;;;;;5034261;28;19913;-20
2023/06/12 09:55:44;;;;;;;;;;;;;;;;;;5034204;28;19920;-22
2023/06/12 09:58:10;;;;;;;;;;;;;;;;;;5033911;28;19925;-21
2023/06/12 10:00:36;;;;;;;;;;;;;;;;;;5033836;28;20247;-22
2023/06/12 10:03:05;;;;;;;;;;;;;;;;;;5033672;28;19921;-20
2023/06/12 10:05:35;;;;;;;;;;;;;;;;;;5033869;28;20000;-21
2023/06/12 10:08:01;;;;;;;;;;;;;;;;;;5033992;28;19917;-22
2023/06/12 10:10:27;;;;;;;;;;;;;;;;;;5032919;28;19909;-21
2023/06/12 10:12:53;;;;;;;;;;;;;;;;;;5033931;28;19917;-22
2023/06/12 10:15:19;;;;;;;;;;;;;;;;;;5034044;28;19910;-20
2023/06/12 10:17:45;;;;;;;;;;;;;;;;;;5033779;28;19913;-21
2023/06/12 10:20:11;;;;;;;;;;;;;;;;;;5032548;28;19909;-21
2023/06/12 10:22:37;;;;;;;;;;;;;;;;;;5033459;28;19920;-22
2023/06/12 10:25:03;;;;;;;;;;;;;;;;;;5033637;28;19969;-20
2023/06/12 10:27:29;;;;;;;;;;;;;;;;;;5033620;28;19909;-22
2023/06/12 10:29:56;;;;;;;;;;;;;;;;;;5033849;28;19909;-21
2023/06/12 10:32:22;;;;;;;;;;;;;;;;;;5032438;28;20261;-21
2023/06/12 10:34:48;;;;;;;;;;;;;;;;;;5033830;28;19990;-21
2023/06/12 10:37:14;;;;;;;;;;;;;;;;;;5033799;28;19915;-21
2023/06/12 10:39:40;;;;;;;;;;;;;;;;;;5033128;28;20311;-21
2023/06/12 10:42:07;;;;;;;;;;;;;;;;;;5033618;28;19909;-23
2023/06/12 10:44:33;;;;;;;;;;;;;;;;;;5033940;28;20250;-21
2023/06/12 10:46:59;;;;;;;;;;;;;;;;;;5037338;28;19991;-21
2023/06/12 10:49:25;;;;;;;;;;;;;;;;;;5037552;28;20303;-22
2023/06/12 10:51:51;;;;;;;;;;;;;;;;;;5037387;28;20075;-21
2023/06/12 10:54:17;;;;;;;;;;;;;;;;;;5036919;28;19924;-23
2023/06/12 10:56:43;;;;;;;;;;;;;;;;;;5035572;28;19921;-20
2023/06/12 10:59:09;;;;;;;;;;;;;;;;;;5036416;28;19909;-23
2023/06/12 11:01:37;;;;;;;;;;;;;;;;;;5036505;28;19955;-20
2023/06/12 11:04:03;;;;;;;;;;;;;;;;;;5035047;28;19935;-21
2023/06/12 11:06:29;;;;;;;;;;;;;;;;;;5036253;28;20198;-21
2023/06/12 11:08:55;;;;;;;;;;;;;;;;;;5036172;28;20202;-21
2023/06/12 11:11:21;;;;;;;;;;;;;;;;;;5036174;28;20008;-22
2023/06/12 11:13:47;;;;;;;;;;;;;;;;;;5036241;28;19940;-22
2023/06/12 11:16:13;;;;;;;;;;;;;;;;;;5036072;28;19913;-21
2023/06/12 11:18:39;;;;;;;;;;;;;;;;;;5036403;28;19975;-22
2023/06/12 11:21:07;;;;;;;;;;;;;;;;;;5036036;28;19909;-22
2023/06/12 11:23:33;;;;;;;;;;;;;;;;;;5034901;28;20008;-21
2023/06/12 11:26:05;;;;;;;;;;;;;;;;;;5036300;28;19959;-21
2023/06/12 11:28:31;;;;;;;;;;;;;;;;;;5036452;28;20303;-22
2023/06/12 11:30:57;;;;;;;;;;;;;;;;;;5035558;28;19910;-22
2023/06/12 11:33:23;;;;;;;;;;;;;;;;;;5036464;28;19928;-22
2023/06/12 11:35:49;;;;;;;;;;;;;;;;;;5036875;28;20332;-21
2023/06/12 11:38:16;;;;;;;;;;;;;;;;;;5036452;28;19909;-21
2023/06/12 11:40:42;;;;;;;;;;;;;;;;;;5036447;28;19920;-20
2023/06/12 11:43:08;;;;;;;;;;;;;;;;;;5036041;28;20335;-21
2023/06/12 11:45:34;;;;;;;;;;;;;;;;;;5035986;28;19909;-23
2023/06/12 11:48:00;;;;;;;;;;;;;;;;;;5035764;28;19910;-21
2023/06/12 11:50:26;;;;;;;;;;;;;;;;;;5036116;28;19917;-21
2023/06/12 11:52:52;;;;;;;;;;;;;;;;;;5035825;28;19913;-22
2023/06/12 11:55:18;;;;;;;;;;;;;;;;;;5035934;28;19947;-21
2023/06/12 11:57:43;;;;;;;;;;;;;;;;;;5036361;28;19960;-22
2023/06/12 12:00:11;;;;;;;;;;;;;;;;;;5036069;28;19928;-28
2023/06/12 12:02:41;;;;;;;;;;;;;;;;;;5035699;28;19953;-20
2023/06/12 12:05:08;;;;;;;;;;;;;;;;;;5036207;28;19936;-21
2023/06/12 12:07:34;;;;;;;;;;;;;;;;;;5036039;28;19953;-21
2023/06/12 12:10:00;;;;;;;;;;;;;;;;;;5034628;28;19932;-20
2023/06/12 12:12:26;;;;;;;;;;;;;;;;;;5035910;28;19975;-20
2023/06/12 12:14:52;;;;;;;;;;;;;;;;;;5035998;28;20000;-22
2023/06/12 12:17:17;;;;;;;;;;;;;;;;;;5035663;28;19953;-22
2023/06/12 12:19:43;;;;;;;;;;;;;;;;;;5034550;28;19909;-22
2023/06/12 12:22:10;;;;;;;;;;;;;;;;;;5035497;28;19909;-22
2023/06/12 12:24:38;;;;;;;;;;;;;;;;;;5035590;28;19909;-22
2023/06/12 12:27:04;;;;;;;;;;;;;;;;;;5035401;28;19952;-22
2023/06/12 12:29:33;;;;;;;;;;;;;;;;;;5035386;28;19921;-22
2023/06/12 12:31:59;;;;;;;;;;;;;;;;;;5035327;28;19908;-22
2023/06/12 12:34:26;;;;;;;;;;;;;;;;;;5035266;28;19966;-22
2023/06/12 12:36:52;;;;;;;;;;;;;;;;;;5035335;28;19929;-22
2023/06/12 12:39:18;;;;;;;;;;;;;;;;;;5035112;28;20004;-22
2023/06/12 12:41:44;;;;;;;;;;;;;;;;;;5035234;28;20407;-22
2023/06/12 12:44:10;;;;;;;;;;;;;;;;;;5035507;28;20315;-21
2023/06/12 12:46:37;;;;;;;;;;;;;;;;;;5035124;28;19991;-20
2023/06/12 12:49:03;;;;;;;;;;;;;;;;;;5035052;28;20004;-21
2023/06/12 12:51:29;;;;;;;;;;;;;;;;;;5034835;28;19963;-21
2023/06/12 12:53:56;;;;;;;;;;;;;;;;;;5034655;28;19914;-21
2023/06/12 12:56:22;;;;;;;;;;;;;;;;;;5033650;28;19996;-22
2023/06/12 12:58:49;;;;;;;;;;;;;;;;;;5034585;28;19949;-22
2023/06/12 13:01:15;;;;;;;;;;;;;;;;;;5033647;28;19909;-22
2023/06/12 13:03:41;;;;;;;;;;;;;;;;;;5033577;28;19921;-22
2023/06/12 13:06:07;;;;;;;;;;;;;;;;;;5035322;28;20316;-23
2023/06/12 13:08:36;;;;;;;;;;;;;;;;;;5034465;28;19913;-27
2023/06/12 13:11:02;;;;;;;;;;;;;;;;;;5034668;28;20239;-22
2023/06/12 13:13:28;;;;;;;;;;;;;;;;;;5033219;28;19913;-21
2023/06/12 13:15:54;;;;;;;;;;;;;;;;;;5034489;28;19909;-22
2023/06/12 13:18:20;;;;;;;;;;;;;;;;;;5034503;28;19909;-22
2023/06/12 13:20:46;;;;;;;;;;;;;;;;;;5033257;28;19963;-21
2023/06/12 13:23:13;;;;;;;;;;;;;;;;;;5033175;28;19909;-20
2023/06/12 13:25:39;;;;;;;;;;;;;;;;;;5034355;28;19909;-21
2023/06/12 13:28:05;;;;;;;;;;;;;;;;;;5034069;28;19966;-22
2023/06/12 13:30:30;;;;;;;;;;;;;;;;;;5034109;28;19920;-23
2023/06/12 13:32:56;;;;;;;;;;;;;;;;;;5034123;28;19924;-22
2023/06/12 13:35:22;;;;;;;;;;;;;;;;;;5034521;28;19914;-21
2023/06/12 13:37:48;;;;;;;;;;;;;;;;;;5033345;28;19920;-20
2023/06/12 13:40:14;;;;;;;;;;;;;;;;;;5034348;28;19910;-20
2023/06/12 13:42:41;;;;;;;;;;;;;;;;;;5034415;28;20014;-21
2023/06/12 13:45:07;;;;;;;;;;;;;;;;;;5034466;28;20317;-21
2023/06/12 13:47:36;;;;;;;;;;;;;;;;;;5034252;28;20019;-24
2023/06/12 13:50:02;;;;;;;;;;;;;;;;;;5034145;28;20263;-22
2023/06/12 13:52:29;;;;;;;;;;;;;;;;;;5034369;28;19913;-21
2023/06/12 13:54:55;;;;;;;;;;;;;;;;;;5034497;28;19909;-21
2023/06/12 13:57:21;;;;;;;;;;;;;;;;;;5034511;28;19963;-21
2023/06/12 13:59:47;;;;;;;;;;;;;;;;;;5034012;28;19944;-22
2023/06/12 14:02:13;;;;;;;;;;;;;;;;;;5033991;28;19951;-21
2023/06/12 14:04:39;;;;;;;;;;;;;;;;;;5033956;28;19956;-23
2023/06/12 14:07:06;;;;;;;;;;;;;;;;;;5034032;28;19909;-21
2023/06/12 14:09:32;;;;;;;;;;;;;;;;;;5033916;28;19937;-21
2023/06/12 14:11:58;;;;;;;;;;;;;;;;;;5033457;28;19909;-22
2023/06/12 14:14:24;;;;;;;;;;;;;;;;;;5033954;28;19968;-20
2023/06/12 14:16:51;;;;;;;;;;;;;;;;;;5034357;28;19910;-22
2023/06/12 14:19:17;;;;;;;;;;;;;;;;;;5035583;28;19916;-21
2023/06/12 14:21:43;;;;;;;;;;;;;;;;;;5037785;28;19913;-29
2023/06/12 14:24:08;;;;;;;;;;;;;;;;;;5037752;28;19909;-23
2023/06/12 14:26:34;;;;;;;;;;;;;;;;;;5037752;28;19995;-21
2023/06/12 14:29:00;;;;;;;;;;;;;;;;;;5037684;28;20359;-21
2023/06/12 14:31:26;;;;;;;;;;;;;;;;;;5037716;28;19979;-21
2023/06/12 14:33:52;;;;;;;;;;;;;;;;;;5037653;28;20338;-20
2023/06/12 14:36:18;;;;;;;;;;;;;;;;;;5038037;28;19913;-22
2023/06/12 14:38:44;;;;;;;;;;;;;;;;;;5037788;28;19921;-21
2023/06/12 14:41:10;;;;;;;;;;;;;;;;;;5037678;28;19956;-21
2023/06/12 14:43:36;;;;;;;;;;;;;;;;;;5037290;28;19996;-21
2023/06/12 14:46:02;;;;;;;;;;;;;;;;;;5038337;28;19967;-21
2023/06/12 14:48:28;;;;;;;;;;;;;;;;;;5037467;28;19916;-21
2023/06/12 14:50:54;;;;;;;;;;;;;;;;;;5037542;28;19913;-23
2023/06/12 14:53:20;;;;;;;;;;;;;;;;;;5037396;28;20321;-22
2023/06/12 14:55:46;;;;;;;;;;;;;;;;;;5037402;28;20324;-21
2023/06/12 14:58:12;;;;;;;;;;;;;;;;;;5037220;28;19910;-22
2023/06/12 15:00:38;;;;;;;;;;;;;;;;;;5036076;28;19909;-22
2023/06/12 15:03:04;;;;;;;;;;;;;;;;;;5036713;28;20353;-20
2023/06/12 15:05:30;;;;;;;;;;;;;;;;;;5036988;28;19916;-21
2023/06/12 15:07:59;;;;;;;;;;;;;;;;;;5036011;28;19910;-21
2023/06/12 15:10:25;;;;;;;;;;;;;;;;;;5036924;28;19915;-21
2023/06/12 15:12:51;;;;;;;;;;;;;;;;;;5037327;28;19913;-21
2023/06/12 15:15:17;;;;;;;;;;;;;;;;;;5036609;28;19941;-21
2023/06/12 15:17:43;;;;;;;;;;;;;;;;;;5036020;28;20343;-21
2023/06/12 15:20:09;;;;;;;;;;;;;;;;;;5036127;28;19920;-22
2023/06/12 15:22:35;;;;;;;;;;;;;;;;;;5036259;28;19925;-21
2023/06/12 15:25:01;;;;;;;;;;;;;;;;;;5036267;28;20259;-21
2023/06/12 15:27:27;;;;;;;;;;;;;;;;;;5036003;28;19917;-20
2023/06/12 15:29:53;;;;;;;;;;;;;;;;;;5035901;28;19913;-21
2023/06/12 15:32:19;;;;;;;;;;;;;;;;;;5035354;28;19956;-21
2023/06/12 15:34:45;;;;;;;;;;;;;;;;;;5035900;28;20227;-21
2023/06/12 15:37:15;;;;;;;;;;;;;;;;;;5035840;28;19936;-21
2023/06/12 15:39:41;;;;;;;;;;;;;;;;;;5036504;28;20000;-23
2023/06/12 15:42:07;;;;;;;;;;;;;;;;;;5036283;28;19944;-21
2023/06/12 15:44:33;;;;;;;;;;;;;;;;;;5036261;28;19919;-22
2023/06/12 15:46:59;;;;;;;;;;;;;;;;;;5036337;28;19916;-21
2023/06/12 15:49:25;;;;;;;;;;;;;;;;;;5036061;28;20006;-22
2023/06/12 15:51:51;;;;;;;;;;;;;;;;;;5035886;28;19909;-23
2023/06/12 15:54:20;;;;;;;;;;;;;;;;;;5036056;28;19924;-21
2023/06/12 15:56:46;;;;;;;;;;;;;;;;;;5036453;28;19909;-22
2023/06/12 15:59:11;;;;;;;;;;;;;;;;;;5036185;28;19935;-21
2023/06/12 16:01:37;;;;;;;;;;;;;;;;;;5035935;28;19909;-23
2023/06/12 16:04:03;;;;;;;;;;;;;;;;;;5035594;28;19961;-22
2023/06/12 16:06:29;;;;;;;;;;;;;;;;;;5035992;28;19909;-21
2023/06/12 16:08:55;;;;;;;;;;;;;;;;;;5035616;28;20225;-20
2023/06/12 16:11:21;;;;;;;;;;;;;;;;;;5035880;28;19910;-20
2023/06/12 16:13:47;;;;;;;;;;;;;;;;;;5035960;28;19980;-22
2023/06/12 16:16:13;;;;;;;;;;;;;;;;;;5036184;28;19913;-21
2023/06/12 16:18:39;;;;;;;;;;;;;;;;;;5035792;28;19916;-22
2023/06/12 16:21:05;;;;;;;;;;;;;;;;;;5035832;28;19916;-20
2023/06/12 16:23:31;;;;;;;;;;;;;;;;;;5035335;28;19984;-22
2023/06/12 16:25:57;;;;;;;;;;;;;;;;;;5035790;28;20240;-21
2023/06/12 16:28:23;;;;;;;;;;;;;;;;;;5035630;28;19913;-21
2023/06/12 16:30:49;;;;;;;;;;;;;;;;;;5034571;28;19946;-23
2023/06/12 16:33:16;;;;;;;;;;;;;;;;;;5034454;28;19913;-23
2023/06/12 16:35:42;;;;;;;;;;;;;;;;;;5035372;28;19917;-22
2023/06/12 16:38:08;;;;;;;;;;;;;;;;;;5035456;28;19992;-23
2023/06/12 16:40:34;;;;;;;;;;;;;;;;;;5035255;28;19979;-23